Flight Information

DEPARTURE
HELENA, MT
Elevation:
3877
Runways:
9/27 - 9000x150 - ASPH-G
17/35 - 2989x75 - ASPH-F
5/23 - 4644x75 - ASPH-F
10/28 - 1584x75 - TURF
ATIS:
120.4
Ground:
121.9
Tower:
HELENA TOWER 118.3
DESTINATION
,
Elevation:
TPA:
1000 (est.)


6293.9 NM74° True-16° Var57° HDG

Flight Plan:
(click to file on line)

1. Type
2. Aircraft Identification
3. Aircraft Type / Special Equipment
4. True Airspeed
kts
5. Departure Airport
(ICAO code)
6. Arriving Airport
(ICAO code)
7. Cruising Altitude
ft
8. Alternate Airport
(ICAO code)
9. Route of Flight
10. Remarks


00:00:00 Departure ATIS: Destination ATIS:

Clearance Limit:
Route:
Altitude: Expect in minutes
Frequency:
Transponder: (7500 Hijack / 7600 Lost Comms / 7700 Emergency)


KHLN 251853Z 02003KT 10SM FEW085 M05/M11 A2977 RMK AO2 SLP142 T10501106
Time: 2021-01-25T18:53:00Z
1611601342
Winds: 20 @ 3 kts
Visibility: 10.0 sm
Clouds (AGL): FEW 8500
Temperature: -5.0 C
Dew Point: -10.6 C
Pressure: 29.769686 in Hgbr


Notes:

Data extracted from FAA Digital Chart Supplement. Effective: 0901Z Thursday, Dec 31, 2020 to 0901Z Thursday, Jan 28, 2021
Current ATIS data is provided courtisy of PilotEdge.